sensor_id;sensor_type;location;lat;lon;timestamp;P1;durP1;ratioP1;P2;durP2;ratioP2
9940;SDS011;5009;50.656;7.188;2023-02-02T05:00:50;13.87;;;7.50;;
9940;SDS011;5009;50.656;7.188;2023-02-02T05:03:15;21.70;;;6.87;;
9940;SDS011;5009;50.656;7.188;2023-02-02T05:05:41;12.83;;;6.63;;
9940;SDS011;5009;50.656;7.188;2023-02-02T05:08:06;17.43;;;6.73;;
9940;SDS011;5009;50.656;7.188;2023-02-02T05:10:33;14.30;;;6.27;;
9940;SDS011;5009;50.656;7.188;2023-02-02T05:12:59;13.13;;;6.03;;
9940;SDS011;5009;50.656;7.188;2023-02-02T05:15:24;14.40;;;6.27;;
9940;SDS011;5009;50.656;7.188;2023-02-02T05:17:50;11.53;;;6.60;;
9940;SDS011;5009;50.656;7.188;2023-02-02T05:20:15;16.00;;;6.63;;
9940;SDS011;5009;50.656;7.188;2023-02-02T05:22:41;16.20;;;7.30;;
9940;SDS011;5009;50.656;7.188;2023-02-02T05:25:07;15.73;;;7.87;;
9940;SDS011;5009;50.656;7.188;2023-02-02T05:27:33;16.63;;;7.47;;
9940;SDS011;5009;50.656;7.188;2023-02-02T05:29:59;16.67;;;7.23;;
9940;SDS011;5009;50.656;7.188;2023-02-02T05:32:25;17.57;;;8.20;;
9940;SDS011;5009;50.656;7.188;2023-02-02T05:34:52;15.30;;;7.10;;
9940;SDS011;5009;50.656;7.188;2023-02-02T05:37:18;17.13;;;7.27;;
9940;SDS011;5009;50.656;7.188;2023-02-02T05:39:43;23.43;;;7.90;;
9940;SDS011;5009;50.656;7.188;2023-02-02T05:42:09;15.97;;;7.20;;
9940;SDS011;5009;50.656;7.188;2023-02-02T05:44:34;15.53;;;7.63;;
9940;SDS011;5009;50.656;7.188;2023-02-02T05:47:00;16.50;;;7.57;;
9940;SDS011;5009;50.656;7.188;2023-02-02T05:49:25;17.10;;;7.30;;
9940;SDS011;5009;50.656;7.188;2023-02-02T05:51:53;18.50;;;7.73;;
9940;SDS011;5009;50.656;7.188;2023-02-02T05:54:21;14.23;;;7.60;;
9940;SDS011;5009;50.656;7.188;2023-02-02T05:56:46;17.33;;;8.03;;
9940;SDS011;5009;50.656;7.188;2023-02-02T05:59:13;13.90;;;7.67;;
9940;SDS011;5009;50.656;7.188;2023-02-02T06:01:39;15.53;;;7.37;;
9940;SDS011;5009;50.656;7.188;2023-02-02T06:04:04;15.77;;;7.20;;
9940;SDS011;5009;50.656;7.188;2023-02-02T06:06:30;13.80;;;6.67;;
9940;SDS011;5009;50.656;7.188;2023-02-02T06:08:55;14.87;;;6.50;;
9940;SDS011;5009;50.656;7.188;2023-02-02T06:11:21;9.67;;;5.97;;
9940;SDS011;5009;50.656;7.188;2023-02-02T06:13:46;17.93;;;6.63;;
9940;SDS011;5009;50.656;7.188;2023-02-02T06:16:12;13.27;;;6.17;;
9940;SDS011;5009;50.656;7.188;2023-02-02T06:18:38;15.30;;;6.87;;
9940;SDS011;5009;50.656;7.188;2023-02-02T06:21:04;12.30;;;6.17;;
9940;SDS011;5009;50.656;7.188;2023-02-02T06:23:30;12.17;;;6.50;;
9940;SDS011;5009;50.656;7.188;2023-02-02T06:25:57;12.33;;;6.83;;
9940;SDS011;5009;50.656;7.188;2023-02-02T06:28:23;10.67;;;6.10;;
9940;SDS011;5009;50.656;7.188;2023-02-02T06:30:49;18.23;;;7.10;;
9940;SDS011;5009;50.656;7.188;2023-02-02T06:33:14;14.27;;;6.90;;
9940;SDS011;5009;50.656;7.188;2023-02-02T06:35:40;14.43;;;7.53;;
9940;SDS011;5009;50.656;7.188;2023-02-02T06:38:05;18.53;;;7.00;;
9940;SDS011;5009;50.656;7.188;2023-02-02T06:40:31;13.03;;;6.13;;
9940;SDS011;5009;50.656;7.188;2023-02-02T06:42:57;15.30;;;6.73;;
9940;SDS011;5009;50.656;7.188;2023-02-02T06:45:24;14.57;;;6.60;;
9940;SDS011;5009;50.656;7.188;2023-02-02T06:47:51;10.43;;;5.93;;
9940;SDS011;5009;50.656;7.188;2023-02-02T06:50:16;16.43;;;6.53;;
9940;SDS011;5009;50.656;7.188;2023-02-02T06:52:48;11.83;;;5.83;;
9940;SDS011;5009;50.656;7.188;2023-02-02T06:55:15;9.70;;;5.83;;
9940;SDS011;5009;50.656;7.188;2023-02-02T06:57:41;10.20;;;6.07;;
9940;SDS011;5009;50.656;7.188;2023-02-02T07:00:07;13.60;;;6.30;;
9940;SDS011;5009;50.656;7.188;2023-02-02T07:02:33;13.67;;;6.70;;
9940;SDS011;5009;50.656;7.188;2023-02-02T07:04:59;12.77;;;6.80;;
9940;SDS011;5009;50.656;7.188;2023-02-02T07:07:25;14.37;;;6.43;;
9940;SDS011;5009;50.656;7.188;2023-02-02T07:09:51;12.13;;;6.37;;
9940;SDS011;5009;50.656;7.188;2023-02-02T07:12:17;15.97;;;6.30;;
9940;SDS011;5009;50.656;7.188;2023-02-02T07:14:43;14.00;;;6.53;;
9940;SDS011;5009;50.656;7.188;2023-02-02T07:17:09;11.40;;;5.43;;
9940;SDS011;5009;50.656;7.188;2023-02-02T07:19:35;14.90;;;6.17;;
9940;SDS011;5009;50.656;7.188;2023-02-02T07:22:01;13.33;;;5.67;;
9940;SDS011;5009;50.656;7.188;2023-02-02T07:24:26;8.40;;;5.37;;
9940;SDS011;5009;50.656;7.188;2023-02-02T07:26:52;11.53;;;5.63;;
9940;SDS011;5009;50.656;7.188;2023-02-02T07:29:18;12.13;;;5.87;;
9940;SDS011;5009;50.656;7.188;2023-02-02T07:32:09;9.50;;;5.33;;
9940;SDS011;5009;50.656;7.188;2023-02-02T07:34:38;9.57;;;5.13;;
9940;SDS011;5009;50.656;7.188;2023-02-02T07:37:03;9.67;;;5.30;;
9940;SDS011;5009;50.656;7.188;2023-02-02T07:39:29;13.30;;;5.97;;
9940;SDS011;5009;50.656;7.188;2023-02-02T07:41:54;11.13;;;5.77;;
9940;SDS011;5009;50.656;7.188;2023-02-02T07:44:20;13.43;;;5.87;;
9940;SDS011;5009;50.656;7.188;2023-02-02T07:46:46;8.83;;;5.40;;
9940;SDS011;5009;50.656;7.188;2023-02-02T07:49:12;11.60;;;5.13;;
9940;SDS011;5009;50.656;7.188;2023-02-02T07:51:39;11.27;;;5.67;;
9940;SDS011;5009;50.656;7.188;2023-02-02T07:54:05;18.23;;;5.67;;
9940;SDS011;5009;50.656;7.188;2023-02-02T07:56:31;11.10;;;5.43;;
9940;SDS011;5009;50.656;7.188;2023-02-02T07:58:57;11.73;;;5.60;;
9940;SDS011;5009;50.656;7.188;2023-02-02T08:01:22;10.53;;;4.87;;
9940;SDS011;5009;50.656;7.188;2023-02-02T08:03:50;9.77;;;4.83;;
9940;SDS011;5009;50.656;7.188;2023-02-02T08:08:43;14.83;;;6.07;;
9940;SDS011;5009;50.656;7.188;2023-02-02T08:11:09;6.73;;;5.00;;
9940;SDS011;5009;50.656;7.188;2023-02-02T08:13:36;8.03;;;4.90;;
9940;SDS011;5009;50.656;7.188;2023-02-02T08:16:03;10.50;;;5.03;;
9940;SDS011;5009;50.656;7.188;2023-02-02T08:18:29;8.83;;;4.77;;
9940;SDS011;5009;50.656;7.188;2023-02-02T08:20:58;9.43;;;5.30;;
9940;SDS011;5009;50.656;7.188;2023-02-02T08:23:24;9.33;;;5.30;;
9940;SDS011;5009;50.656;7.188;2023-02-02T08:25:50;8.10;;;5.30;;
9940;SDS011;5009;50.656;7.188;2023-02-02T08:28:17;8.97;;;5.80;;
9940;SDS011;5009;50.656;7.188;2023-02-02T08:30:43;11.93;;;5.23;;
9940;SDS011;5009;50.656;7.188;2023-02-02T08:33:09;12.73;;;6.23;;
9940;SDS011;5009;50.656;7.188;2023-02-02T08:35:38;13.43;;;6.33;;
9940;SDS011;5009;50.656;7.188;2023-02-02T08:38:05;13.33;;;5.47;;
9940;SDS011;5009;50.656;7.188;2023-02-02T08:40:31;11.60;;;6.37;;
9940;SDS011;5009;50.656;7.188;2023-02-02T08:42:57;9.87;;;5.60;;
9940;SDS011;5009;50.656;7.188;2023-02-02T08:45:23;12.27;;;6.03;;
9940;SDS011;5009;50.656;7.188;2023-02-02T08:47:49;9.57;;;5.33;;
9940;SDS011;5009;50.656;7.188;2023-02-02T08:50:15;10.67;;;5.20;;
9940;SDS011;5009;50.656;7.188;2023-02-02T08:52:43;8.80;;;5.23;;
9940;SDS011;5009;50.656;7.188;2023-02-02T08:55:08;9.40;;;5.20;;
9940;SDS011;5009;50.656;7.188;2023-02-02T08:57:34;10.07;;;5.67;;
9940;SDS011;5009;50.656;7.188;2023-02-02T09:00:00;8.70;;;5.10;;
9940;SDS011;5009;50.656;7.188;2023-02-02T09:02:25;8.43;;;5.03;;
9940;SDS011;5009;50.656;7.188;2023-02-02T09:04:51;13.80;;;7.00;;
9940;SDS011;5009;50.656;7.188;2023-02-02T09:07:16;12.77;;;10.23;;
9940;SDS011;5009;50.656;7.188;2023-02-02T09:09:42;9.23;;;6.80;;
9940;SDS011;5009;50.656;7.188;2023-02-02T09:12:07;13.13;;;5.57;;
9940;SDS011;5009;50.656;7.188;2023-02-02T09:14:33;14.17;;;5.40;;
9940;SDS011;5009;50.656;7.188;2023-02-02T09:16:58;11.97;;;4.90;;
9940;SDS011;5009;50.656;7.188;2023-02-02T09:19:24;9.90;;;5.07;;
9940;SDS011;5009;50.656;7.188;2023-02-02T09:21:49;10.97;;;5.13;;
9940;SDS011;5009;50.656;7.188;2023-02-02T09:24:15;8.70;;;5.30;;
9940;SDS011;5009;50.656;7.188;2023-02-02T09:26:41;8.67;;;5.53;;
9940;SDS011;5009;50.656;7.188;2023-02-02T09:29:13;7.23;;;4.87;;
9940;SDS011;5009;50.656;7.188;2023-02-02T09:31:40;10.27;;;5.70;;
9940;SDS011;5009;50.656;7.188;2023-02-02T09:34:07;10.23;;;5.27;;
9940;SDS011;5009;50.656;7.188;2023-02-02T09:36:34;12.70;;;5.77;;
9940;SDS011;5009;50.656;7.188;2023-02-02T09:39:00;11.00;;;5.90;;
9940;SDS011;5009;50.656;7.188;2023-02-02T09:47:00;10.57;;;5.67;;
9940;SDS011;5009;50.656;7.188;2023-02-02T09:49:53;12.57;;;5.50;;
9940;SDS011;5009;50.656;7.188;2023-02-02T09:52:22;9.10;;;5.63;;
9940;SDS011;5009;50.656;7.188;2023-02-02T09:57:49;11.63;;;5.77;;
9940;SDS011;5009;50.656;7.188;2023-02-02T10:01:00;11.37;;;5.87;;
9940;SDS011;5009;50.656;7.188;2023-02-02T10:03:14;10.13;;;5.50;;
9940;SDS011;5009;50.656;7.188;2023-02-02T10:05:50;10.33;;;5.57;;
9940;SDS011;5009;50.656;7.188;2023-02-02T10:08:37;7.37;;;5.20;;
9940;SDS011;5009;50.656;7.188;2023-02-02T10:14:10;10.10;;;5.23;;
9940;SDS011;5009;50.656;7.188;2023-02-02T10:16:43;9.73;;;5.47;;
9940;SDS011;5009;50.656;7.188;2023-02-02T10:19:11;10.23;;;4.83;;
9940;SDS011;5009;50.656;7.188;2023-02-02T10:24:23;7.33;;;4.43;;
9940;SDS011;5009;50.656;7.188;2023-02-02T10:26:52;9.67;;;4.60;;
9940;SDS011;5009;50.656;7.188;2023-02-02T10:29:38;8.87;;;5.10;;
9940;SDS011;5009;50.656;7.188;2023-02-02T10:35:02;7.73;;;4.50;;
9940;SDS011;5009;50.656;7.188;2023-02-02T10:37:56;8.93;;;4.70;;
9940;SDS011;5009;50.656;7.188;2023-02-02T10:46:14;10.70;;;4.90;;
9940;SDS011;5009;50.656;7.188;2023-02-02T10:48:44;6.63;;;4.40;;
9940;SDS011;5009;50.656;7.188;2023-02-02T10:51:14;8.23;;;4.60;;
9940;SDS011;5009;50.656;7.188;2023-02-02T10:53:47;8.13;;;4.63;;
9940;SDS011;5009;50.656;7.188;2023-02-02T10:56:21;10.63;;;4.77;;
9940;SDS011;5009;50.656;7.188;2023-02-02T10:59:02;14.33;;;5.10;;
9940;SDS011;5009;50.656;7.188;2023-02-02T11:01:48;8.60;;;4.70;;
9940;SDS011;5009;50.656;7.188;2023-02-02T11:04:14;8.97;;;4.77;;
9940;SDS011;5009;50.656;7.188;2023-02-02T11:06:59;12.33;;;5.47;;
9940;SDS011;5009;50.656;7.188;2023-02-02T11:09:25;10.97;;;5.57;;
9940;SDS011;5009;50.656;7.188;2023-02-02T11:15:00;10.10;;;5.47;;
9940;SDS011;5009;50.656;7.188;2023-02-02T11:17:29;11.10;;;5.20;;
9940;SDS011;5009;50.656;7.188;2023-02-02T11:19:56;7.67;;;4.67;;
9940;SDS011;5009;50.656;7.188;2023-02-02T11:25:54;9.07;;;5.03;;
9940;SDS011;5009;50.656;7.188;2023-02-02T11:27:57;7.73;;;5.07;;
9940;SDS011;5009;50.656;7.188;2023-02-02T11:30:34;10.70;;;5.27;;
9940;SDS011;5009;50.656;7.188;2023-02-02T11:33:18;9.63;;;4.97;;
9940;SDS011;5009;50.656;7.188;2023-02-02T11:35:54;8.90;;;4.93;;
9940;SDS011;5009;50.656;7.188;2023-02-02T11:38:21;7.90;;;4.63;;
9940;SDS011;5009;50.656;7.188;2023-02-02T11:41:01;8.17;;;4.40;;
9940;SDS011;5009;50.656;7.188;2023-02-02T11:46:19;10.90;;;4.93;;
9940;SDS011;5009;50.656;7.188;2023-02-02T11:49:03;9.80;;;4.87;;
9940;SDS011;5009;50.656;7.188;2023-02-02T11:51:33;6.47;;;4.17;;
9940;SDS011;5009;50.656;7.188;2023-02-02T11:54:06;9.17;;;5.07;;
9940;SDS011;5009;50.656;7.188;2023-02-02T11:56:41;9.57;;;5.17;;
9940;SDS011;5009;50.656;7.188;2023-02-02T11:59:33;8.37;;;4.97;;
9940;SDS011;5009;50.656;7.188;2023-02-02T12:04:48;7.97;;;4.60;;
9940;SDS011;5009;50.656;7.188;2023-02-02T12:09:43;11.27;;;7.00;;
9940;SDS011;5009;50.656;7.188;2023-02-02T12:15:18;5.73;;;4.57;;
9940;SDS011;5009;50.656;7.188;2023-02-02T12:18:00;9.33;;;4.97;;
9940;SDS011;5009;50.656;7.188;2023-02-02T12:20:30;8.13;;;5.10;;
9940;SDS011;5009;50.656;7.188;2023-02-02T12:23:11;9.93;;;6.40;;
9940;SDS011;5009;50.656;7.188;2023-02-02T12:34:14;7.07;;;5.63;;
9940;SDS011;5009;50.656;7.188;2023-02-02T12:42:35;11.63;;;5.43;;
9940;SDS011;5009;50.656;7.188;2023-02-02T12:56:25;13.10;;;5.70;;
9940;SDS011;5009;50.656;7.188;2023-02-02T13:12:09;10.47;;;4.57;;
9940;SDS011;5009;50.656;7.188;2023-02-02T13:14:44;8.87;;;5.13;;
9940;SDS011;5009;50.656;7.188;2023-02-02T13:17:18;9.67;;;4.60;;
9940;SDS011;5009;50.656;7.188;2023-02-02T13:19:50;10.37;;;4.93;;
9940;SDS011;5009;50.656;7.188;2023-02-02T13:22:38;6.70;;;4.10;;
9940;SDS011;5009;50.656;7.188;2023-02-02T13:25:08;9.07;;;4.60;;
9940;SDS011;5009;50.656;7.188;2023-02-02T13:27:43;7.10;;;4.10;;
9940;SDS011;5009;50.656;7.188;2023-02-02T13:32:59;9.63;;;4.47;;
9940;SDS011;5009;50.656;7.188;2023-02-02T13:35:35;11.50;;;5.00;;
9940;SDS011;5009;50.656;7.188;2023-02-02T13:38:14;10.67;;;4.63;;
9940;SDS011;5009;50.656;7.188;2023-02-02T13:40:45;8.43;;;3.83;;
9940;SDS011;5009;50.656;7.188;2023-02-02T13:45:48;11.20;;;4.00;;
9940;SDS011;5009;50.656;7.188;2023-02-02T13:48:38;9.23;;;3.77;;
9940;SDS011;5009;50.656;7.188;2023-02-02T13:59:54;7.03;;;3.90;;
9940;SDS011;5009;50.656;7.188;2023-02-02T14:02:48;10.23;;;3.80;;
9940;SDS011;5009;50.656;7.188;2023-02-02T14:05:31;6.63;;;3.57;;
9940;SDS011;5009;50.656;7.188;2023-02-02T14:08:06;9.93;;;3.53;;
9940;SDS011;5009;50.656;7.188;2023-02-02T14:10:36;5.93;;;3.20;;
9940;SDS011;5009;50.656;7.188;2023-02-02T14:13:07;7.90;;;3.53;;
9940;SDS011;5009;50.656;7.188;2023-02-02T14:15:54;10.23;;;3.40;;
9940;SDS011;5009;50.656;7.188;2023-02-02T14:18:54;6.97;;;3.27;;
9940;SDS011;5009;50.656;7.188;2023-02-02T14:21:40;4.97;;;2.83;;
9940;SDS011;5009;50.656;7.188;2023-02-02T14:26:46;4.90;;;3.03;;
9940;SDS011;5009;50.656;7.188;2023-02-02T14:34:59;5.63;;;2.97;;
9940;SDS011;5009;50.656;7.188;2023-02-02T14:37:59;10.70;;;3.60;;
9940;SDS011;5009;50.656;7.188;2023-02-02T14:43:44;7.20;;;3.07;;
9940;SDS011;5009;50.656;7.188;2023-02-02T14:46:19;5.07;;;3.10;;
9940;SDS011;5009;50.656;7.188;2023-02-02T14:51:31;6.50;;;3.10;;
9940;SDS011;5009;50.656;7.188;2023-02-02T14:53:59;4.43;;;2.40;;
9940;SDS011;5009;50.656;7.188;2023-02-02T15:02:01;4.20;;;2.47;;
9940;SDS011;5009;50.656;7.188;2023-02-02T15:04:34;8.23;;;3.00;;
9940;SDS011;5009;50.656;7.188;2023-02-02T15:07:48;4.50;;;2.53;;
9940;SDS011;5009;50.656;7.188;2023-02-02T15:09:49;6.20;;;2.87;;
9940;SDS011;5009;50.656;7.188;2023-02-02T15:12:16;4.63;;;2.70;;
9940;SDS011;5009;50.656;7.188;2023-02-02T15:25:36;11.27;;;5.47;;
9940;SDS011;5009;50.656;7.188;2023-02-02T15:31:01;7.87;;;3.63;;
9940;SDS011;5009;50.656;7.188;2023-02-02T15:33:41;4.10;;;3.13;;
9940;SDS011;5009;50.656;7.188;2023-02-02T15:36:10;4.83;;;2.63;;
9940;SDS011;5009;50.656;7.188;2023-02-02T15:38:40;7.20;;;2.80;;
9940;SDS011;5009;50.656;7.188;2023-02-02T15:41:51;5.60;;;2.40;;
9940;SDS011;5009;50.656;7.188;2023-02-02T15:44:16;9.07;;;3.07;;
9940;SDS011;5009;50.656;7.188;2023-02-02T15:46:50;5.00;;;2.60;;
9940;SDS011;5009;50.656;7.188;2023-02-02T15:51:46;7.60;;;3.10;;
9940;SDS011;5009;50.656;7.188;2023-02-02T15:54:19;5.10;;;2.50;;
9940;SDS011;5009;50.656;7.188;2023-02-02T15:56:46;6.63;;;2.80;;
9940;SDS011;5009;50.656;7.188;2023-02-02T15:59:19;8.87;;;2.73;;
9940;SDS011;5009;50.656;7.188;2023-02-02T16:01:49;5.43;;;2.50;;
9940;SDS011;5009;50.656;7.188;2023-02-02T16:04:33;7.07;;;2.90;;
9940;SDS011;5009;50.656;7.188;2023-02-02T16:07:04;4.37;;;2.30;;
9940;SDS011;5009;50.656;7.188;2023-02-02T16:09:36;7.20;;;2.93;;
9940;SDS011;5009;50.656;7.188;2023-02-02T16:12:03;7.50;;;3.07;;
9940;SDS011;5009;50.656;7.188;2023-02-02T16:14:30;4.23;;;3.00;;
9940;SDS011;5009;50.656;7.188;2023-02-02T16:17:19;5.90;;;2.77;;
9940;SDS011;5009;50.656;7.188;2023-02-02T16:19:50;3.47;;;2.60;;
9940;SDS011;5009;50.656;7.188;2023-02-02T16:22:22;6.07;;;2.80;;
9940;SDS011;5009;50.656;7.188;2023-02-02T16:24:53;6.10;;;2.47;;
9940;SDS011;5009;50.656;7.188;2023-02-02T16:27:21;5.23;;;2.60;;
9940;SDS011;5009;50.656;7.188;2023-02-02T16:29:50;7.50;;;3.27;;
9940;SDS011;5009;50.656;7.188;2023-02-02T16:32:35;4.47;;;2.50;;
9940;SDS011;5009;50.656;7.188;2023-02-02T16:35:04;7.50;;;3.30;;
9940;SDS011;5009;50.656;7.188;2023-02-02T16:37:32;14.43;;;7.57;;
9940;SDS011;5009;50.656;7.188;2023-02-02T16:40:17;7.87;;;3.60;;
9940;SDS011;5009;50.656;7.188;2023-02-02T16:43:05;7.43;;;4.03;;
9940;SDS011;5009;50.656;7.188;2023-02-02T16:45:46;6.33;;;2.77;;
9940;SDS011;5009;50.656;7.188;2023-02-02T16:51:29;4.83;;;2.53;;
9940;SDS011;5009;50.656;7.188;2023-02-02T16:56:59;6.83;;;2.47;;
9940;SDS011;5009;50.656;7.188;2023-02-02T16:59:25;4.70;;;2.40;;
9940;SDS011;5009;50.656;7.188;2023-02-02T17:01:55;4.20;;;1.90;;
9940;SDS011;5009;50.656;7.188;2023-02-02T17:04:24;4.80;;;2.83;;
9940;SDS011;5009;50.656;7.188;2023-02-02T17:06:52;6.77;;;2.50;;
9940;SDS011;5009;50.656;7.188;2023-02-02T17:09:26;5.93;;;2.67;;
9940;SDS011;5009;50.656;7.188;2023-02-02T17:12:00;2.97;;;2.00;;
9940;SDS011;5009;50.656;7.188;2023-02-02T17:14:30;2.47;;;2.13;;
9940;SDS011;5009;50.656;7.188;2023-02-02T17:16:57;5.57;;;2.67;;
9940;SDS011;5009;50.656;7.188;2023-02-02T17:19:26;4.73;;;2.50;;
9940;SDS011;5009;50.656;7.188;2023-02-02T17:21:53;5.63;;;3.00;;
9940;SDS011;5009;50.656;7.188;2023-02-02T17:24:19;4.57;;;2.53;;
9940;SDS011;5009;50.656;7.188;2023-02-02T17:26:45;3.87;;;2.20;;
9940;SDS011;5009;50.656;7.188;2023-02-02T17:29:12;6.43;;;2.67;;
9940;SDS011;5009;50.656;7.188;2023-02-02T17:31:41;2.93;;;2.30;;
9940;SDS011;5009;50.656;7.188;2023-02-02T17:34:11;5.10;;;2.60;;
9940;SDS011;5009;50.656;7.188;2023-02-02T17:36:41;6.17;;;2.77;;
9940;SDS011;5009;50.656;7.188;2023-02-02T17:39:07;6.07;;;2.73;;
9940;SDS011;5009;50.656;7.188;2023-02-02T17:41:33;5.80;;;3.20;;
9940;SDS011;5009;50.656;7.188;2023-02-02T17:43:59;10.60;;;5.63;;
9940;SDS011;5009;50.656;7.188;2023-02-02T17:46:24;7.30;;;3.47;;
9940;SDS011;5009;50.656;7.188;2023-02-02T17:48:54;4.70;;;2.77;;
9940;SDS011;5009;50.656;7.188;2023-02-02T17:51:20;5.40;;;2.93;;
9940;SDS011;5009;50.656;7.188;2023-02-02T17:53:46;5.90;;;2.90;;
9940;SDS011;5009;50.656;7.188;2023-02-02T17:56:12;6.83;;;2.90;;
9940;SDS011;5009;50.656;7.188;2023-02-02T17:58:38;6.60;;;2.80;;
9940;SDS011;5009;50.656;7.188;2023-02-02T18:01:03;3.33;;;2.20;;
9940;SDS011;5009;50.656;7.188;2023-02-02T18:03:30;3.20;;;2.50;;
9940;SDS011;5009;50.656;7.188;2023-02-02T18:05:58;5.20;;;2.73;;
9940;SDS011;5009;50.656;7.188;2023-02-02T18:08:26;4.97;;;2.73;;
9940;SDS011;5009;50.656;7.188;2023-02-02T18:10:52;5.43;;;3.20;;
9940;SDS011;5009;50.656;7.188;2023-02-02T18:13:18;5.80;;;2.90;;
9940;SDS011;5009;50.656;7.188;2023-02-02T18:15:45;8.43;;;4.43;;
9940;SDS011;5009;50.656;7.188;2023-02-02T18:18:11;6.77;;;4.17;;
9940;SDS011;5009;50.656;7.188;2023-02-02T18:20:43;8.03;;;3.87;;
9940;SDS011;5009;50.656;7.188;2023-02-02T18:23:11;7.37;;;4.80;;
9940;SDS011;5009;50.656;7.188;2023-02-02T18:25:36;4.80;;;2.77;;
9940;SDS011;5009;50.656;7.188;2023-02-02T18:28:03;4.93;;;3.40;;
9940;SDS011;5009;50.656;7.188;2023-02-02T18:30:29;9.80;;;3.83;;
9940;SDS011;5009;50.656;7.188;2023-02-02T18:32:56;6.30;;;3.53;;
9940;SDS011;5009;50.656;7.188;2023-02-02T18:35:22;6.67;;;3.30;;
9940;SDS011;5009;50.656;7.188;2023-02-02T18:37:49;4.97;;;3.30;;
9940;SDS011;5009;50.656;7.188;2023-02-02T18:40:15;6.27;;;3.27;;
9940;SDS011;5009;50.656;7.188;2023-02-02T18:42:40;5.50;;;3.03;;
9940;SDS011;5009;50.656;7.188;2023-02-02T18:45:06;6.70;;;3.73;;
9940;SDS011;5009;50.656;7.188;2023-02-02T18:47:32;6.47;;;3.70;;
9940;SDS011;5009;50.656;7.188;2023-02-02T18:49:57;8.23;;;3.27;;
9940;SDS011;5009;50.656;7.188;2023-02-02T18:52:23;6.07;;;3.40;;
9940;SDS011;5009;50.656;7.188;2023-02-02T18:54:49;6.80;;;3.33;;
9940;SDS011;5009;50.656;7.188;2023-02-02T18:57:14;7.13;;;3.80;;
9940;SDS011;5009;50.656;7.188;2023-02-02T18:59:40;7.60;;;3.67;;
9940;SDS011;5009;50.656;7.188;2023-02-02T19:02:09;8.40;;;5.33;;
9940;SDS011;5009;50.656;7.188;2023-02-02T19:04:41;6.63;;;4.33;;
9940;SDS011;5009;50.656;7.188;2023-02-02T19:07:45;11.83;;;4.00;;
9940;SDS011;5009;50.656;7.188;2023-02-02T19:10:20;8.63;;;4.13;;
9940;SDS011;5009;50.656;7.188;2023-02-02T19:13:30;8.37;;;3.90;;
9940;SDS011;5009;50.656;7.188;2023-02-02T19:15:44;8.43;;;4.53;;
9940;SDS011;5009;50.656;7.188;2023-02-02T19:18:15;8.93;;;4.50;;
9940;SDS011;5009;50.656;7.188;2023-02-02T19:20:45;8.87;;;4.50;;
9940;SDS011;5009;50.656;7.188;2023-02-02T19:23:13;8.37;;;6.33;;
9940;SDS011;5009;50.656;7.188;2023-02-02T19:25:40;13.87;;;6.67;;
9940;SDS011;5009;50.656;7.188;2023-02-02T19:28:49;8.47;;;5.70;;
9940;SDS011;5009;50.656;7.188;2023-02-02T19:30:57;17.67;;;10.80;;
9940;SDS011;5009;50.656;7.188;2023-02-02T19:33:36;13.17;;;7.70;;
9940;SDS011;5009;50.656;7.188;2023-02-02T19:36:04;10.17;;;5.33;;
9940;SDS011;5009;50.656;7.188;2023-02-02T19:38:36;9.43;;;5.20;;
9940;SDS011;5009;50.656;7.188;2023-02-02T19:41:04;7.87;;;5.03;;
9940;SDS011;5009;50.656;7.188;2023-02-02T19:43:38;6.93;;;4.30;;
9940;SDS011;5009;50.656;7.188;2023-02-02T19:46:08;6.97;;;4.63;;
9940;SDS011;5009;50.656;7.188;2023-02-02T19:48:40;8.17;;;4.70;;
9940;SDS011;5009;50.656;7.188;2023-02-02T19:53:56;6.13;;;4.23;;
9940;SDS011;5009;50.656;7.188;2023-02-02T19:56:28;6.73;;;5.00;;
9940;SDS011;5009;50.656;7.188;2023-02-02T19:59:00;7.03;;;4.77;;
9940;SDS011;5009;50.656;7.188;2023-02-02T20:01:26;7.83;;;4.77;;
9940;SDS011;5009;50.656;7.188;2023-02-02T20:03:53;7.50;;;4.83;;
9940;SDS011;5009;50.656;7.188;2023-02-02T20:06:23;8.40;;;5.33;;
9940;SDS011;5009;50.656;7.188;2023-02-02T20:08:50;7.83;;;4.83;;
9940;SDS011;5009;50.656;7.188;2023-02-02T20:13:56;8.40;;;4.37;;
9940;SDS011;5009;50.656;7.188;2023-02-02T20:16:52;7.47;;;5.37;;
9940;SDS011;5009;50.656;7.188;2023-02-02T20:19:31;7.63;;;5.40;;
9940;SDS011;5009;50.656;7.188;2023-02-02T20:22:00;9.77;;;5.47;;
9940;SDS011;5009;50.656;7.188;2023-02-02T20:24:27;10.47;;;5.50;;
9940;SDS011;5009;50.656;7.188;2023-02-02T20:27:18;7.80;;;5.30;;
9940;SDS011;5009;50.656;7.188;2023-02-02T20:29:46;11.57;;;6.20;;
9940;SDS011;5009;50.656;7.188;2023-02-02T20:32:20;8.17;;;5.40;;
9940;SDS011;5009;50.656;7.188;2023-02-02T20:34:51;6.93;;;5.03;;
9940;SDS011;5009;50.656;7.188;2023-02-02T20:37:21;7.93;;;5.03;;
9940;SDS011;5009;50.656;7.188;2023-02-02T20:42:18;8.53;;;5.30;;
9940;SDS011;5009;50.656;7.188;2023-02-02T20:44:44;7.43;;;4.90;;
9940;SDS011;5009;50.656;7.188;2023-02-02T20:47:09;8.10;;;4.53;;
9940;SDS011;5009;50.656;7.188;2023-02-02T20:49:35;6.60;;;5.00;;
9940;SDS011;5009;50.656;7.188;2023-02-02T20:52:03;6.80;;;4.57;;
9940;SDS011;5009;50.656;7.188;2023-02-02T20:54:31;7.80;;;5.30;;
9940;SDS011;5009;50.656;7.188;2023-02-02T20:56:58;8.20;;;4.93;;
9940;SDS011;5009;50.656;7.188;2023-02-02T20:59:24;6.53;;;5.00;;
9940;SDS011;5009;50.656;7.188;2023-02-02T21:01:50;8.33;;;4.50;;
9940;SDS011;5009;50.656;7.188;2023-02-02T21:04:16;8.87;;;4.77;;
9940;SDS011;5009;50.656;7.188;2023-02-02T21:06:42;7.33;;;4.60;;
9940;SDS011;5009;50.656;7.188;2023-02-02T21:09:08;6.60;;;4.80;;
9940;SDS011;5009;50.656;7.188;2023-02-02T21:11:34;6.33;;;4.50;;
9940;SDS011;5009;50.656;7.188;2023-02-02T21:14:00;8.00;;;4.67;;
9940;SDS011;5009;50.656;7.188;2023-02-02T21:16:25;8.50;;;4.87;;
9940;SDS011;5009;50.656;7.188;2023-02-02T21:18:51;6.10;;;4.93;;
9940;SDS011;5009;50.656;7.188;2023-02-02T21:21:17;6.10;;;4.73;;
9940;SDS011;5009;50.656;7.188;2023-02-02T21:23:45;8.47;;;4.40;;
9940;SDS011;5009;50.656;7.188;2023-02-02T21:26:16;6.10;;;4.47;;
9940;SDS011;5009;50.656;7.188;2023-02-02T21:28:43;6.37;;;4.43;;
9940;SDS011;5009;50.656;7.188;2023-02-02T21:31:10;7.13;;;4.40;;
9940;SDS011;5009;50.656;7.188;2023-02-02T21:33:37;5.43;;;4.90;;
9940;SDS011;5009;50.656;7.188;2023-02-02T21:38:59;6.97;;;4.67;;
9940;SDS011;5009;50.656;7.188;2023-02-02T21:41:35;8.27;;;4.60;;
9940;SDS011;5009;50.656;7.188;2023-02-02T21:44:01;5.47;;;4.10;;
9940;SDS011;5009;50.656;7.188;2023-02-02T21:46:34;6.00;;;4.43;;
9940;SDS011;5009;50.656;7.188;2023-02-02T21:49:02;6.17;;;4.40;;
9940;SDS011;5009;50.656;7.188;2023-02-02T21:51:32;7.10;;;4.67;;
9940;SDS011;5009;50.656;7.188;2023-02-02T21:57:00;6.60;;;4.30;;
9940;SDS011;5009;50.656;7.188;2023-02-02T21:59:32;7.07;;;4.80;;
